createdAt,value
2017-11-11T00:01:38.727Z,96.80
2017-11-11T00:04:49.389Z,96.60
2017-11-11T00:08:00.015Z,96.20
2017-11-11T00:11:09.942Z,96.60
2017-11-11T00:14:20.950Z,96.30
2017-11-11T00:17:30.875Z,96.30
2017-11-11T00:20:41.064Z,96.40
2017-11-11T00:23:51.093Z,96.60
2017-11-11T00:27:01.907Z,96.30
2017-11-11T00:30:12.612Z,96.40
2017-11-11T00:33:22.615Z,96.30
2017-11-11T00:36:32.461Z,96.40
2017-11-11T00:39:42.930Z,96.10
2017-11-11T00:42:53.675Z,96.10
2017-11-11T00:46:03.531Z,96.10
2017-11-11T00:49:14.371Z,96.00
2017-11-11T00:52:24.540Z,96.00
2017-11-11T00:55:34.274Z,95.90
2017-11-11T00:58:44.278Z,95.80
2017-11-11T01:01:54.046Z,95.50
2017-11-11T01:05:03.860Z,95.80
2017-11-11T01:08:14.082Z,95.80
2017-11-11T01:11:23.861Z,96.10
2017-11-11T01:14:33.641Z,96.00
2017-11-11T01:17:43.427Z,96.10
2017-11-11T01:20:53.556Z,95.60
2017-11-11T01:24:03.773Z,96.00
2017-11-11T01:27:14.345Z,95.80
2017-11-11T01:30:24.409Z,96.20
2017-11-11T01:33:34.340Z,95.80
2017-11-11T01:36:44.716Z,95.70
2017-11-11T01:39:55.235Z,96.20
2017-11-11T01:43:05.413Z,96.20
2017-11-11T01:46:16.084Z,95.80
2017-11-11T01:49:25.941Z,96.00
2017-11-11T01:52:36.441Z,95.70
2017-11-11T01:55:46.577Z,95.70
2017-11-11T01:58:56.162Z,95.90
2017-11-11T02:02:06.240Z,95.90
2017-11-11T02:05:15.663Z,96.10
2017-11-11T02:08:25.447Z,95.80
2017-11-11T02:11:36.143Z,95.70
2017-11-11T02:14:46.184Z,95.70
2017-11-11T02:17:55.774Z,95.90
2017-11-11T02:21:05.793Z,95.80
2017-11-11T02:24:15.842Z,95.70
2017-11-11T02:27:25.510Z,95.90
2017-11-11T02:30:35.576Z,95.70
2017-11-11T02:33:44.971Z,95.60
2017-11-11T02:36:54.469Z,95.70
2017-11-11T02:40:04.644Z,95.60
2017-11-11T02:43:13.945Z,95.20
2017-11-11T02:46:24.072Z,95.30
2017-11-11T02:49:34.411Z,95.70
2017-11-11T02:52:44.519Z,95.60
2017-11-11T02:55:55.147Z,95.60
2017-11-11T02:59:05.504Z,95.70
2017-11-11T03:02:15.341Z,95.80
2017-11-11T03:05:25.954Z,95.50
2017-11-11T03:08:36.683Z,95.80
2017-11-11T03:11:48.062Z,95.90
2017-11-11T03:14:58.747Z,95.60
2017-11-11T03:18:08.388Z,95.60
2017-11-11T03:21:18.460Z,95.80
2017-11-11T03:24:29.989Z,96.00
2017-11-11T03:27:40.064Z,96.00
2017-11-11T03:30:49.855Z,96.00
2017-11-11T03:34:00.764Z,96.40
2017-11-11T03:37:11.823Z,96.20
2017-11-11T03:40:22.058Z,96.10
2017-11-11T03:43:31.986Z,96.60
2017-11-11T03:46:42.592Z,96.60
2017-11-11T03:49:52.424Z,96.40
2017-11-11T03:53:03.614Z,96.60
2017-11-11T03:56:14.292Z,96.60
2017-11-11T03:59:24.943Z,96.40
2017-11-11T04:02:35.590Z,96.30
2017-11-11T04:05:46.227Z,96.40
2017-11-11T04:08:56.240Z,96.50
2017-11-11T04:12:07.657Z,96.30
2017-11-11T04:15:18.613Z,96.50
2017-11-11T04:18:28.556Z,96.50
2017-11-11T04:21:38.527Z,96.40
2017-11-11T04:24:48.434Z,96.30
2017-11-11T04:27:59.103Z,96.10
2017-11-11T04:31:09.191Z,96.10
2017-11-11T04:34:19.011Z,95.90
2017-11-11T04:37:28.794Z,96.30
2017-11-11T04:40:39.474Z,96.00
2017-11-11T04:43:49.436Z,96.00
2017-11-11T04:47:00.311Z,96.30
2017-11-11T04:50:10.166Z,96.30
2017-11-11T04:53:20.062Z,96.10
2017-11-11T04:56:30.128Z,96.40
2017-11-11T04:59:40.149Z,96.20
2017-11-11T05:02:50.104Z,96.10
2017-11-11T05:06:00.538Z,96.20
2017-11-11T05:09:10.461Z,96.30
2017-11-11T05:12:20.370Z,96.50
2017-11-11T05:15:31.140Z,96.60
2017-11-11T05:18:41.341Z,96.60
2017-11-11T05:21:51.753Z,96.80
2017-11-11T05:25:01.649Z,97.00
2017-11-11T05:28:11.176Z,96.90
2017-11-11T05:31:21.238Z,97.00
2017-11-11T05:34:31.042Z,97.30
2017-11-11T05:37:41.673Z,97.30
2017-11-11T05:40:51.509Z,97.40
2017-11-11T05:44:02.135Z,97.30
2017-11-11T05:47:12.239Z,97.30
2017-11-11T05:50:22.212Z,97.60
2017-11-11T05:53:32.835Z,97.20
2017-11-11T05:56:43.193Z,97.20
2017-11-11T05:59:53.312Z,97.30
2017-11-11T06:03:03.798Z,97.20
2017-11-11T06:06:14.086Z,97.10
2017-11-11T06:09:23.997Z,97.10
2017-11-11T06:12:33.843Z,97.10
2017-11-11T06:15:43.640Z,97.30
2017-11-11T06:18:53.649Z,97.10
2017-11-11T06:22:03.935Z,97.00
2017-11-11T06:25:14.073Z,96.90
2017-11-11T06:28:23.899Z,96.90
2017-11-11T06:31:34.714Z,96.80
2017-11-11T06:34:44.879Z,96.70
2017-11-11T06:37:54.645Z,96.80
2017-11-11T06:41:04.498Z,96.80
2017-11-11T06:44:14.615Z,96.60
2017-11-11T06:47:24.605Z,96.70
2017-11-11T06:50:35.274Z,96.80
2017-11-11T06:53:45.384Z,96.50
2017-11-11T06:56:55.291Z,96.70
2017-11-11T07:00:04.471Z,96.80
2017-11-11T07:03:14.726Z,97.00
2017-11-11T07:06:24.946Z,96.80
2017-11-11T07:09:34.840Z,97.00
2017-11-11T07:12:44.763Z,97.10
2017-11-11T07:15:55.218Z,96.90
2017-11-11T07:19:06.573Z,97.00
2017-11-11T07:22:18.043Z,96.90
2017-11-11T07:25:28.408Z,96.90
2017-11-11T07:28:38.475Z,97.10
2017-11-11T07:31:48.817Z,96.80
2017-11-11T07:34:58.854Z,96.70
2017-11-11T07:38:09.106Z,96.80
2017-11-11T07:41:19.908Z,96.70
2017-11-11T07:44:30.983Z,96.50
2017-11-11T07:47:41.994Z,96.20
2017-11-11T07:50:52.491Z,96.20
2017-11-11T07:54:04.491Z,95.70
2017-11-11T07:57:15.444Z,95.10
2017-11-11T08:00:26.087Z,95.20
2017-11-11T08:03:37.096Z,95.20
2017-11-11T08:06:48.321Z,95.00
2017-11-11T08:09:58.634Z,94.90
2017-11-11T08:13:09.425Z,94.90
2017-11-11T08:16:20.433Z,93.90
2017-11-11T08:19:31.267Z,94.50
2017-11-11T08:22:41.454Z,94.50
2017-11-11T08:25:51.795Z,94.50
2017-11-11T08:29:01.667Z,94.40
2017-11-11T08:32:12.382Z,94.50
2017-11-11T08:35:23.385Z,94.50
2017-11-11T08:38:33.592Z,94.20
2017-11-11T08:41:44.209Z,94.40
2017-11-11T08:44:55.068Z,94.60
2017-11-11T08:48:06.630Z,94.40
2017-11-11T08:51:18.072Z,94.20
2017-11-11T08:54:28.312Z,94.20
2017-11-11T08:57:39.563Z,94.80
2017-11-11T09:00:50.305Z,94.40
2017-11-11T09:04:00.422Z,94.20
2017-11-11T09:07:10.158Z,94.20
2017-11-11T09:10:20.275Z,94.40
2017-11-11T09:13:31.895Z,94.80
2017-11-11T09:16:42.282Z,94.80
2017-11-11T09:19:53.190Z,94.60
2017-11-11T09:23:03.836Z,94.60
2017-11-11T09:26:14.819Z,94.10
2017-11-11T09:29:25.548Z,93.50
2017-11-11T09:32:35.406Z,94.20
2017-11-11T09:35:45.574Z,94.00
2017-11-11T09:38:55.285Z,93.90
2017-11-11T09:42:05.292Z,93.60
2017-11-11T09:45:15.480Z,94.30
2017-11-11T09:48:25.969Z,93.50
2017-11-11T09:51:36.385Z,94.00
2017-11-11T09:54:46.207Z,93.90
2017-11-11T09:57:56.073Z,93.90
2017-11-11T10:01:06.086Z,93.90
2017-11-11T10:04:17.419Z,93.50
2017-11-11T10:07:28.243Z,93.60
2017-11-11T10:10:41.101Z,93.60
2017-11-11T10:13:52.098Z,93.60
2017-11-11T10:17:02.125Z,93.60
2017-11-11T10:20:13.604Z,93.20
2017-11-11T10:23:25.062Z,93.50
2017-11-11T10:26:35.980Z,93.20
2017-11-11T10:29:46.861Z,93.30
2017-11-11T10:32:56.869Z,93.20
2017-11-11T10:36:07.661Z,93.40
2017-11-11T10:39:17.692Z,93.00
2017-11-11T10:42:28.560Z,92.80
2017-11-11T10:45:38.475Z,93.20
2017-11-11T10:48:49.327Z,93.00
2017-11-11T10:51:59.164Z,93.10
2017-11-11T10:55:09.718Z,93.10
2017-11-11T10:58:20.253Z,93.10
2017-11-11T11:01:30.862Z,93.20
2017-11-11T11:04:40.668Z,93.00
2017-11-11T11:07:50.450Z,92.90
2017-11-11T11:11:01.184Z,92.70
2017-11-11T11:14:11.475Z,92.70
2017-11-11T11:17:21.349Z,92.90
2017-11-11T11:20:31.141Z,92.90
2017-11-11T11:23:41.002Z,93.00
2017-11-11T11:26:50.586Z,92.80
2017-11-11T11:30:02.139Z,92.50
2017-11-11T11:33:12.256Z,92.40
2017-11-11T11:36:22.140Z,92.40
2017-11-11T11:39:32.846Z,92.60
2017-11-11T11:42:43.581Z,93.00
2017-11-11T11:45:53.586Z,93.00
2017-11-11T11:49:03.437Z,92.20
2017-11-11T11:52:13.390Z,92.50
2017-11-11T11:55:23.485Z,92.20
2017-11-11T11:58:33.374Z,92.10
2017-11-11T12:01:43.582Z,92.30
2017-11-11T12:04:54.352Z,91.70
2017-11-11T12:08:04.258Z,91.40
2017-11-11T12:11:14.661Z,91.30
2017-11-11T12:14:24.802Z,91.70
2017-11-11T12:17:36.190Z,91.90
2017-11-11T12:20:47.081Z,91.90
2017-11-11T12:23:57.329Z,91.90
2017-11-11T12:27:07.339Z,91.90
2017-11-11T12:30:17.272Z,92.10
2017-11-11T12:33:29.030Z,91.90
2017-11-11T12:36:39.257Z,91.90
2017-11-11T12:39:49.757Z,92.10
2017-11-11T12:42:59.947Z,92.40
2017-11-11T12:46:09.768Z,91.80
2017-11-11T12:49:19.595Z,92.00
2017-11-11T12:52:30.636Z,91.50
2017-11-11T12:55:40.700Z,91.50
2017-11-11T12:58:50.622Z,91.80
2017-11-11T13:02:00.694Z,92.00
2017-11-11T13:05:10.987Z,91.70
2017-11-11T13:08:20.954Z,91.90
2017-11-11T13:11:33.089Z,92.30
2017-11-11T13:14:43.974Z,91.90
2017-11-11T13:17:54.254Z,91.90
2017-11-11T13:21:04.163Z,91.80
2017-11-11T13:24:14.658Z,92.20
2017-11-11T13:27:24.560Z,91.90
2017-11-11T13:30:34.631Z,91.70
2017-11-11T13:33:44.414Z,91.40
2017-11-11T13:36:54.370Z,91.90
2017-11-11T13:40:03.981Z,92.10
2017-11-11T13:43:13.777Z,92.10
2017-11-11T13:46:23.477Z,92.10
2017-11-11T13:49:34.146Z,92.30
2017-11-11T13:52:44.892Z,92.40
2017-11-11T13:55:55.049Z,92.30
2017-11-11T13:59:05.053Z,92.60
2017-11-11T14:02:15.134Z,92.80
2017-11-11T14:05:25.848Z,93.80
2017-11-11T14:08:36.078Z,93.80
2017-11-11T14:11:46.455Z,93.90
2017-11-11T14:14:56.974Z,94.10
2017-11-11T14:18:07.376Z,94.10
2017-11-11T14:21:17.252Z,94.80
2017-11-11T14:24:27.020Z,94.40
2017-11-11T14:27:36.897Z,94.80
2017-11-11T14:30:46.928Z,95.50
2017-11-11T14:33:57.316Z,95.70
2017-11-11T14:37:07.808Z,95.80
2017-11-11T14:40:17.714Z,95.60
2017-11-11T14:43:28.039Z,95.70
2017-11-11T14:46:38.676Z,96.00
2017-11-11T14:49:49.053Z,96.00
2017-11-11T14:52:58.851Z,95.60
2017-11-11T14:56:09.653Z,96.00
2017-11-11T14:59:19.632Z,96.10
2017-11-11T15:02:30.821Z,96.60
2017-11-11T15:05:41.276Z,96.30
2017-11-11T15:08:51.988Z,96.50
2017-11-11T15:12:02.016Z,96.50
2017-11-11T15:15:13.539Z,96.50
2017-11-11T15:18:23.739Z,96.50
2017-11-11T15:21:33.507Z,96.40
2017-11-11T15:24:43.371Z,96.50
2017-11-11T15:27:54.433Z,96.50
2017-11-11T15:31:05.324Z,97.10
2017-11-11T15:34:15.880Z,97.10
2017-11-11T15:37:30.256Z,97.00
2017-11-11T15:40:40.666Z,97.20
2017-11-11T15:43:50.770Z,97.30
2017-11-11T15:47:00.827Z,97.60
2017-11-11T15:50:11.108Z,97.40
2017-11-11T15:53:21.253Z,97.50
2017-11-11T15:56:30.945Z,97.70
2017-11-11T15:59:40.705Z,97.90
2017-11-11T16:02:50.896Z,97.90
2017-11-11T16:06:01.390Z,97.50
2017-11-11T16:09:12.064Z,97.60
2017-11-11T16:12:23.150Z,98.00
2017-11-11T16:15:33.280Z,97.90
2017-11-11T16:18:43.682Z,98.10
2017-11-11T16:21:53.918Z,98.30
2017-11-11T16:25:04.487Z,98.50
2017-11-11T16:28:15.115Z,98.00
2017-11-11T16:31:25.877Z,98.30
2017-11-11T16:34:35.961Z,98.30
2017-11-11T16:37:46.683Z,98.20
2017-11-11T16:40:56.617Z,98.50
2017-11-11T16:44:07.370Z,98.30
2017-11-11T16:47:18.387Z,98.30
2017-11-11T16:50:27.899Z,98.40
2017-11-11T16:53:38.697Z,98.60
2017-11-11T16:56:49.517Z,98.80
2017-11-11T17:00:00.223Z,98.40
2017-11-11T17:03:11.496Z,99.10
2017-11-11T17:06:21.567Z,99.10
2017-11-11T17:09:31.653Z,99.00
2017-11-11T17:12:41.731Z,99.90
2017-11-11T17:15:52.218Z,99.30
2017-11-11T17:19:02.937Z,99.20
2017-11-11T17:22:12.709Z,99.60
2017-11-11T17:25:22.510Z,98.40
2017-11-11T17:28:33.209Z,98.80
2017-11-11T17:31:43.414Z,99.00
2017-11-11T17:34:54.080Z,98.60
2017-11-11T17:38:04.763Z,98.30
2017-11-11T17:41:15.058Z,98.30
2017-11-11T17:44:25.482Z,98.40
2017-11-11T17:47:35.289Z,98.10
2017-11-11T17:50:45.099Z,98.30
2017-11-11T17:53:54.999Z,98.10
2017-11-11T17:57:05.061Z,98.00
2017-11-11T18:00:15.916Z,97.70
2017-11-11T18:03:26.297Z,98.00
2017-11-11T18:06:37.730Z,98.10
2017-11-11T18:09:48.803Z,98.00
2017-11-11T18:12:59.180Z,98.00
2017-11-11T18:16:09.610Z,98.10
2017-11-11T18:19:19.613Z,97.90
2017-11-11T18:22:29.663Z,98.30
2017-11-11T18:25:39.472Z,98.30
2017-11-11T18:28:49.384Z,98.10
2017-11-11T18:32:00.030Z,98.30
2017-11-11T18:35:10.221Z,98.90
2017-11-11T18:38:20.060Z,98.70
2017-11-11T18:41:29.973Z,98.40
2017-11-11T18:44:41.483Z,98.70
2017-11-11T18:47:51.439Z,98.70
2017-11-11T18:51:01.595Z,98.40
2017-11-11T18:54:12.251Z,98.70
2017-11-11T18:57:22.324Z,98.50
2017-11-11T19:00:32.429Z,98.80
2017-11-11T19:03:43.174Z,98.30
2017-11-11T19:06:53.474Z,98.30
2017-11-11T19:10:04.100Z,98.60
2017-11-11T19:13:14.490Z,98.50
2017-11-11T19:16:24.317Z,98.40
2017-11-11T19:19:34.158Z,98.40
2017-11-11T19:22:44.351Z,98.60
2017-11-11T19:25:55.298Z,98.80
2017-11-11T19:29:07.275Z,99.00
2017-11-11T19:32:17.642Z,99.00
2017-11-11T19:35:29.096Z,99.00
2017-11-11T19:38:39.592Z,98.90
2017-11-11T19:41:50.140Z,98.90
2017-11-11T19:45:00.039Z,98.50
2017-11-11T19:48:10.036Z,98.70
2017-11-11T19:51:19.954Z,98.50
2017-11-11T19:54:29.763Z,98.40
2017-11-11T19:57:39.301Z,98.50
2017-11-11T20:00:49.312Z,98.50
2017-11-11T20:03:59.586Z,98.10
2017-11-11T20:07:10.268Z,98.30
2017-11-11T20:10:21.915Z,98.40
2017-11-11T20:13:33.341Z,98.30
2017-11-11T20:16:43.969Z,98.30
2017-11-11T20:19:55.462Z,98.20
2017-11-11T20:23:05.609Z,98.10
2017-11-11T20:26:16.214Z,98.20
2017-11-11T20:29:25.899Z,98.40
2017-11-11T20:32:36.870Z,98.30
2017-11-11T20:35:47.574Z,98.30
2017-11-11T20:38:57.793Z,98.60
2017-11-11T20:42:09.059Z,98.60
2017-11-11T20:45:19.493Z,98.50
2017-11-11T20:48:30.605Z,98.50
2017-11-11T20:51:41.102Z,98.50
2017-11-11T20:54:52.305Z,98.80
2017-11-11T20:58:02.632Z,98.60
2017-11-11T21:01:13.229Z,98.70
2017-11-11T21:04:23.940Z,98.60
2017-11-11T21:07:33.832Z,98.60
2017-11-11T21:10:44.034Z,98.50
2017-11-11T21:13:54.428Z,98.70
2017-11-11T21:17:04.665Z,99.00
2017-11-11T21:20:15.457Z,98.80
2017-11-11T21:23:25.921Z,98.80
2017-11-11T21:26:36.095Z,99.10
2017-11-11T21:29:45.825Z,99.40
2017-11-11T21:32:55.814Z,99.20
2017-11-11T21:36:06.831Z,99.40
2017-11-11T21:39:17.196Z,99.40
2017-11-11T21:42:27.945Z,99.60
2017-11-11T21:45:38.529Z,99.50
2017-11-11T21:48:49.402Z,99.50
2017-11-11T21:51:59.464Z,99.50
2017-11-11T21:55:09.391Z,99.40
2017-11-11T21:58:20.073Z,99.70
2017-11-11T22:01:30.058Z,99.60
2017-11-11T22:04:41.280Z,99.90
2017-11-11T22:07:51.528Z,99.40
2017-11-11T22:11:01.378Z,99.60
2017-11-11T22:14:12.147Z,99.60
2017-11-11T22:17:22.982Z,99.60
2017-11-11T22:20:34.479Z,99.60
2017-11-11T22:23:44.495Z,99.60
2017-11-11T22:26:56.068Z,99.70
2017-11-11T22:30:07.501Z,99.30
2017-11-11T22:33:18.032Z,99.30
2017-11-11T22:36:28.095Z,99.20
2017-11-11T22:39:38.207Z,99.10
2017-11-11T22:42:48.835Z,98.90
2017-11-11T22:45:59.411Z,99.00
2017-11-11T22:49:10.159Z,99.00
2017-11-11T22:52:21.473Z,98.70
2017-11-11T22:55:31.974Z,98.70
2017-11-11T22:58:41.851Z,98.60
2017-11-11T23:01:52.260Z,98.60
2017-11-11T23:05:03.404Z,98.50
2017-11-11T23:08:13.784Z,98.30
2017-11-11T23:11:23.723Z,98.40
2017-11-11T23:14:34.494Z,98.50
2017-11-11T23:17:43.969Z,98.40
2017-11-11T23:20:54.176Z,98.30
2017-11-11T23:24:04.788Z,98.30
2017-11-11T23:27:15.488Z,98.60
2017-11-11T23:30:27.146Z,98.70
2017-11-11T23:33:37.259Z,98.70
2017-11-11T23:36:48.750Z,98.80
2017-11-11T23:39:59.427Z,98.80
2017-11-11T23:43:09.488Z,98.80
2017-11-11T23:46:20.824Z,98.90
2017-11-11T23:49:30.832Z,98.90
2017-11-11T23:52:41.658Z,99.00
2017-11-11T23:55:52.209Z,99.10
2017-11-11T23:59:02.741Z,99.00
